ADDS METAR Data INFO
IDs: Format: Raw Decoded Include TAF

Data at: 1330 UTC 25 Feb 2018

KJYR 251315Z AUTO 25009KT 10SM CLR M07/M09 A2992 RMK AO2
KJYR 251255Z AUTO 25009KT 10SM CLR M07/M09 A2991 RMK AO2
KJYR 251235Z AUTO 26008KT 10SM CLR M07/M09 A2990 RMK AO2
KJYR 251215Z AUTO 25009KT 10SM CLR M07/M09 A2990 RMK AO2
KJYR 251155Z AUTO 25009KT 10SM CLR M08/M09 A2990 RMK AO2
KJYR 251135Z AUTO 24009KT 10SM CLR M08/M09 A2990 RMK AO2
KJYR 251115Z AUTO 23010KT 10SM CLR M08/M09 A2990 RMK AO2
KJYR 251055Z AUTO 22007KT 10SM CLR M09/M10 A2990 RMK AO2
KJYR 251035Z AUTO 22008KT 10SM CLR M08/M09 A2990 RMK AO2
KJYR 251015Z AUTO 24007KT 10SM CLR M08/M09 A2989 RMK AO2
KJYR 250955Z AUTO 24010KT 10SM CLR M08/M09 A2988 RMK AO2
KJYR 250935Z AUTO 24008KT 10SM CLR M08/M09 A2988 RMK AO2
KJYR 250920Z AUTO 24008KT 10SM CLR M08/M09 A2988 RMK AO2
KJYR 250855Z AUTO 25007KT 10SM CLR M08/M09 A2988 RMK AO2
KJYR 250835Z AUTO 25007KT 10SM CLR M08/M09 A2987 RMK AO2
KJYR 250815Z AUTO 26007KT 10SM CLR M07/M09 A2987 RMK AO2
KJYR 250755Z AUTO 25008KT 10SM CLR M07/M09 A2988 RMK AO2
KJYR 250735Z AUTO 25008KT 10SM CLR M07/M08 A2987 RMK AO2
KJYR 250715Z AUTO 25010KT 10SM CLR M06/M08 A2987 RMK AO2
KJYR 250655Z AUTO 26007KT 10SM CLR M07/M08 A2987 RMK AO2
KJYR 250635Z AUTO 27008KT 10SM CLR M07/M08 A2986 RMK AO2
KJYR 250615Z AUTO 27010KT 10SM CLR M05/M08 A2986 RMK AO2
KJYR 250555Z AUTO 27009KT 10SM CLR M05/M08 A2986 RMK AO2
KJYR 250535Z AUTO 28011KT 10SM CLR M04/M08 A2986 RMK AO2
KJYR 250515Z AUTO 29013KT 10SM CLR M03/M07 A2986 RMK AO2
KJYR 250455Z AUTO 28012KT 10SM CLR M04/M08 A2985 RMK AO2
KJYR 250435Z AUTO 28011KT 10SM CLR M04/M08 A2984 RMK AO2
KJYR 250415Z AUTO 28011KT 10SM CLR M03/M07 A2983 RMK AO2
KJYR 250355Z AUTO 29012KT 10SM CLR M03/M07 A2983 RMK AO2
KJYR 250335Z AUTO 29013KT 10SM CLR M03/M06 A2981 RMK AO2
KJYR 250315Z AUTO 29012KT 10SM CLR M02/M06 A2981 RMK AO2
KJYR 250255Z AUTO 29014KT 10SM CLR M02/M05 A2980 RMK AO2
KJYR 250235Z AUTO 29014KT 10SM CLR M02/M05 A2979 RMK AO2
KJYR 250215Z AUTO 29014KT 10SM CLR M02/M05 A2977 RMK AO2
KJYR 250155Z AUTO 29016G21KT 10SM CLR M01/M04 A2976 RMK AO2
KJYR 250135Z AUTO 29015KT 10SM CLR 00/M04 A2975 RMK AO2
KJYR 250115Z AUTO 29018KT 10SM CLR 00/M04 A2974 RMK AO2
KJYR 250055Z AUTO 29017KT 10SM CLR 00/M03 A2973 RMK AO2
KJYR 250035Z AUTO 00000KT 10SM CLR M01/M01 A2971 RMK AO2
KJYR 250015Z AUTO 00000KT 10SM CLR 00/00 A2970 RMK AO2
KJYR 242355Z AUTO 00000KT 10SM CLR M01/M01 A2970 RMK AO2
KJYR 242335Z AUTO 00000KT 10SM FEW014 M01/M01 A2970 RMK AO2
KJYR 242315Z AUTO 00000KT 10SM SCT014 BKN024 M01/M01 A2970 RMK AO2
KJYR 242255Z AUTO 00000KT 9SM SCT014 OVC024 M01/M01 A2970 RMK AO2
KJYR 242235Z AUTO 00000KT 9SM OVC014 M02/M02 A2970 RMK AO2
KJYR 242215Z AUTO 00000KT 10SM BKN014 M02/M02 A2971 RMK AO2
KJYR 242155Z AUTO 00000KT 10SM OVC014 M02/M02 A2971 RMK AO2
KJYR 242135Z AUTO 00000KT 10SM OVC014 M02/M02 A2972 RMK AO2
KJYR 242115Z AUTO 00000KT 10SM BKN014 BKN060 M03/M03 A2972 RMK AO2
KJYR 242055Z AUTO 00000KT 10SM FEW012 BKN060 M03/M03 A2973 RMK AO2
KJYR 242035Z AUTO 00000KT 10SM SCT050 M03/M03 A2973 RMK AO2
KJYR 242015Z AUTO 00000KT 10SM SCT055 M04/M04 A2975 RMK AO2
KJYR 241955Z AUTO 00000KT 10SM SCT047 BKN055 M04/M04 A2976 RMK AO2
KJYR 241935Z AUTO 00000KT 10SM OVC045 M04/M04 A2977 RMK AO2
KJYR 241915Z AUTO 00000KT 10SM OVC043 M04/M04 A2978 RMK AO2
KJYR 241855Z AUTO 00000KT 10SM SCT017 BKN041 M04/M04 A2979 RMK AO2
KJYR 241835Z AUTO 00000KT 10SM FEW017 M05/M05 A2981 RMK AO2
KJYR 241815Z AUTO 00000KT 10SM CLR M05/M05 A2982 RMK AO2
KJYR 241755Z AUTO 00000KT 7SM FEW070 SCT080 M05/M05 A2982 RMK AO2
KJYR 241735Z AUTO 00000KT 10SM SCT070 BKN080 BKN110 M05/M05 A2983 RMK AO2
KJYR 241715Z AUTO 00000KT 9SM -SN SCT070 SCT080 BKN110 M05/M05 A2984 RMK AO2
KJYR 241655Z AUTO 00000KT 10SM FEW065 BKN080 BKN110 M05/M05 A2984 RMK AO2
KJYR 241635Z AUTO 00000KT 10SM FEW065 SCT080 BKN100 M05/M05 A2985 RMK AO2
KJYR 241615Z AUTO 00000KT 8SM FEW065 SCT075 BKN090 M05/M05 A2986 RMK AO2
KJYR 241555Z AUTO 00000KT 2 1/2SM -SN BKN065 BKN090 M05/M05 A2987 RMK AO2
KJYR 241535Z AUTO 00000KT 1 3/4SM -SN SCT065 BKN075 M06/M06 A2990 RMK AO2
KJYR 241515Z AUTO 00000KT 1 1/4SM -SN SCT075 SCT090 BKN110 M05/M05 A2993 RMK AO2
KJYR 241455Z AUTO 00000KT 3/4SM -SN BKN065 OVC080 M06/M06 A2995 RMK AO2
KJYR 241435Z AUTO 00000KT 2SM -SN BKN065 OVC090 M06/M06 A2995 RMK AO2
KJYR 241415Z AUTO 00000KT 1 1/2SM -SN BKN065 BKN100 M06/M06 A2995 RMK AO2
KJYR 241355Z AUTO 00000KT 2SM -SN SCT065 BKN075 BKN100 M06/M06 A2995 RMK AO2
KJYR 241335Z AUTO 00000KT 2SM -SN BKN075 BKN080 BKN110 M06/M06 A2994 RMK AO2
KJYR 241315Z AUTO 00000KT 2 1/2SM BR SCT075 SCT095 M06/M06 A2995 RMK AO2
KJYR 241255Z AUTO 00000KT 3SM BR CLR M06/M06 A2997 RMK AO2
KJYR 241235Z AUTO 00000KT 2 1/2SM -SN CLR M06/M06 A2996 RMK AO2
KJYR 241215Z AUTO 00000KT 2 1/2SM -SN CLR M06/M06 A2999 RMK AO2
KJYR 241155Z AUTO 07005KT 2 1/2SM -SN CLR M06/M06 A2999 RMK AO2
KJYR 241135Z AUTO 07003KT 1 3/4SM -SN CLR M06/M06 A2999 RMK AO2
KJYR 241115Z AUTO 07004KT 1 1/2SM BR CLR M07/M07 A3000 RMK AO2
KJYR 241055Z AUTO 06005KT 3/4SM -SN VV005 M07/M07 A3000 RMK AO2
KJYR 241035Z AUTO 05005KT 1/2SM SN VV005 M07/M07 A3002 RMK AO2
KJYR 241015Z AUTO 06007KT 1/2SM FZFG VV005 M07/M07 A3002 RMK AO2
KJYR 240955Z AUTO 05006KT 1/2SM FZFG VV005 M07/M07 A3003 RMK AO2
KJYR 240935Z AUTO 04007KT 1/2SM FZFG VV005 M07/M07 A3004 RMK AO2
KJYR 240915Z AUTO 04007KT 1/2SM FZFG VV005 M07/M07 A3004 RMK AO2
KJYR 240855Z AUTO 05009KT 1SM BR CLR M07/M07 A3005 RMK AO2
KJYR 240835Z AUTO 03007KT 1SM BR CLR M07/M07 A3008 RMK AO2
KJYR 240815Z AUTO 04007KT 2 1/2SM BR CLR M07/M07 A3009 RMK AO2
KJYR 240755Z AUTO 03007KT 4SM BR CLR M07/M07 A3011 RMK AO2
KJYR 240735Z AUTO 04006KT 8SM CLR M07/M07 A3011 RMK AO2
KJYR 240715Z AUTO 08009KT 8SM CLR M07/M07 A3012 RMK AO2
KJYR 240655Z AUTO 10008KT 5SM BR CLR M07/M07 A3015 RMK AO2
KJYR 240635Z AUTO 11011KT 5SM BR CLR M07/M07 A3016 RMK AO2
KJYR 240615Z AUTO 11012KT 5SM BR CLR M07/M07 A3018 RMK AO2
KJYR 240555Z AUTO 10009KT 7SM CLR M07/M07 A3019 RMK AO2
KJYR 240535Z AUTO 10009KT 7SM CLR M07/M07 A3018 RMK AO2
KJYR 240515Z AUTO 08009KT 5SM BR CLR M07/M07 A3020 RMK AO2
KJYR 240455Z AUTO 05008KT 8SM CLR M06/M06 A3020 RMK AO2
KJYR 240435Z AUTO 05010KT 10SM CLR M06/M06 A3021 RMK AO2
KJYR 240415Z AUTO 06009KT 10SM CLR M06/M06 A3022 RMK AO2
KJYR 240355Z AUTO 06011KT 10SM CLR M06/M06 A3023 RMK AO2
KJYR 240335Z AUTO 05010KT 10SM CLR M06/M06 A3023 RMK AO2
KJYR 240315Z AUTO 04005KT 10SM FEW013 M07/M07 A3023 RMK AO2
KJYR 240255Z AUTO 00000KT 10SM FEW013 M08/M08 A3022 RMK AO2
KJYR 240235Z AUTO 00000KT 10SM FEW013 M07/M07 A3023 RMK AO2
KJYR 240210Z AUTO 00000KT 10SM CLR M07/M07 A3023 RMK AO2
KJYR 240155Z AUTO 04005KT 10SM CLR M06/M06 A3023 RMK AO2
KJYR 240135Z AUTO 03006KT 10SM CLR M05/M05 A3022 RMK AO2